Smithton, PA

4:14 PM EST on February 14, 2016 (GMT -0500)
Rostraver Township | | Change Station
CLOSE
Current Station
Personal Weather Station
Location: Belle Vernon, PA
Elevation: 994 ft
Nearby Weather Stations

Elev 994 ft 40.15 °N, 79.79 °W | Updated 9 seconds ago

Partly Cloudy
Partly Cloudy
19.0 °F
Feels Like 19 °F
N
0.2
Wind Variable Wind from ENE
Gusts 2.5 mph

Today
High -- | Low -- °F
--% Chance of Precip.
Yesterday
High -- | Low -- °F
Precip. -- in
Pressure 30.41 in
Visibility 10.0 miles
Clouds Clear
Windchill 19 °F
Dew Point -9 °F
Humidity 28%
Rainfall 0.00 in
Snow Depth Not available.
7:13 AM 5:52 PM
Waxing Crescent, 45% visible
METAR KAGC 142053Z 08005KT 10SM CLR M08/M19 A3032 RMK AO2 SLP298 T10831189 56025
Pressure 30.41 in
Visibility 10.0 miles
Clouds Clear
Windchill 19 °F
Dew Point -9 °F
Humidity 28%
Rainfall 0.00 in
Snow Depth Not available.
7:13 AM 5:52 PM
Waxing Crescent, 45% visible
METAR KAGC 142053Z 08005KT 10SM CLR M08/M19 A3032 RMK AO2 SLP298 T10831189 56025

10-Day Weather Forecast

Almanac

Astronomy

Feb. 14, 2016 Rise Set
Actual Time
Civil Twilight
Nautical Twilight
Astronomical Twilight
Moon
Length of Visible Light
Length of Day
Tomorrow will be .
, % of the Moon is Illuminated

Today's Extremes

State Highs State Lows

Community

WunderPhotos

Upload Photos

1,892,886 photos uploaded!

WunderBlog® & News

Nearby

Air Quality

  Air Quality AQ Index Pollutant
Not available.

Snow Depth

Station Depth Elevation

Earthquake Activity

City Distance Mag. Time & Date
Minimum magnitude displayed is 2.5.

Coastal Water Temperatures

Place Temperature

Stations

Nearby Weather Stations

Station Location Temp. Windchill Dew Point Humidity Wind Precip. Elev Updated Type
                   

Watches & Warnings

There are currently no watches in effect.